createdAt,value
2019-05-14T00:00:13.196Z,0.09
2019-05-14T00:01:14.969Z,0.09
2019-05-14T00:02:15.420Z,0.09
2019-05-14T00:03:15.983Z,0.09
2019-05-14T00:04:16.385Z,0.09
2019-05-14T00:05:16.975Z,0.09
2019-05-14T00:06:16.467Z,0.09
2019-05-14T00:07:18.020Z,0.09
2019-05-14T00:08:18.656Z,0.09
2019-05-14T00:09:21.395Z,0.09
2019-05-14T00:10:18.865Z,0.09
2019-05-14T00:11:21.947Z,0.09
2019-05-14T00:12:22.119Z,0.09
2019-05-14T00:13:21.433Z,0.09
2019-05-14T00:14:23.278Z,0.09
2019-05-14T00:15:21.836Z,0.09
2019-05-14T00:16:24.355Z,0.09
2019-05-14T00:17:22.451Z,0.09
2019-05-14T00:18:24.089Z,0.09
2019-05-14T00:19:24.514Z,0.09
2019-05-14T00:20:24.959Z,0.09
2019-05-14T00:21:25.518Z,0.09
2019-05-14T00:22:26.056Z,0.09
2019-05-14T00:23:26.695Z,0.09
2019-05-14T00:24:27.255Z,0.09
2019-05-14T00:25:26.810Z,0.09
2019-05-14T00:26:27.872Z,0.09
2019-05-14T00:27:31.056Z,0.09
2019-05-14T00:28:28.639Z,0.09
2019-05-14T00:29:29.179Z,0.09
2019-05-14T00:30:31.664Z,0.09
2019-05-14T00:31:31.761Z,0.09
2019-05-14T00:32:31.768Z,0.09
2019-05-14T00:33:31.717Z,0.09
2019-05-14T00:34:32.032Z,0.09
2019-05-14T00:35:35.773Z,0.09
2019-05-14T00:36:33.067Z,0.09
2019-05-14T00:37:34.474Z,0.09
2019-05-14T00:38:34.943Z,0.09
2019-05-14T00:39:34.433Z,0.09
2019-05-14T00:40:35.901Z,0.09
2019-05-14T00:41:36.682Z,0.09
2019-05-14T00:42:37.239Z,0.09
2019-05-14T00:43:37.765Z,0.09
2019-05-14T00:44:51.634Z,0.09
2019-05-14T00:45:37.893Z,0.09
2019-05-14T00:46:41.118Z,0.09
2019-05-14T00:47:41.568Z,0.09
2019-05-14T00:48:42.029Z,0.09
2019-05-14T00:49:42.490Z,0.09
2019-05-14T00:50:42.098Z,0.09
2019-05-14T00:51:41.535Z,0.09
2019-05-14T00:52:46.123Z,0.09
2019-05-14T00:53:42.481Z,0.09
2019-05-14T00:54:43.933Z,0.09
2019-05-14T00:55:44.427Z,0.09
2019-05-14T00:56:44.972Z,0.09
2019-05-14T00:57:45.550Z,0.09
2019-05-14T00:58:46.196Z,0.09
2019-05-14T00:58:56.737Z,0.09
2019-05-14T00:59:58.151Z,0.09
2019-05-14T01:00:58.639Z,0.09
2019-05-14T01:01:59.179Z,0.09
2019-05-14T01:03:01.790Z,0.09
2019-05-14T01:04:01.116Z,0.09
2019-05-14T01:05:01.783Z,0.09
2019-05-14T01:06:02.220Z,0.09
2019-05-14T01:07:01.545Z,0.09
2019-05-14T01:08:01.889Z,0.09
2019-05-14T01:09:01.589Z,0.09
2019-05-14T01:10:01.639Z,0.09
2019-05-14T01:11:03.090Z,0.09
2019-05-14T01:12:03.859Z,0.09
2019-05-14T01:13:04.251Z,0.09
2019-05-14T01:14:04.763Z,0.09
2019-05-14T01:15:09.737Z,0.09
2019-05-14T01:16:04.848Z,0.09
2019-05-14T01:17:06.301Z,0.09
2019-05-14T01:18:06.927Z,0.09
2019-05-14T01:19:07.413Z,0.09
2019-05-14T01:20:08.025Z,0.09
2019-05-14T01:21:08.491Z,0.09
2019-05-14T01:22:08.945Z,0.09
2019-05-14T01:23:11.359Z,0.09
2019-05-14T01:24:08.646Z,0.09
2019-05-14T01:25:11.999Z,0.09
2019-05-14T01:26:11.516Z,0.09
2019-05-14T01:27:12.082Z,0.09
2019-05-14T01:28:11.274Z,0.09
2019-05-14T01:29:12.028Z,0.09
2019-05-14T01:30:12.523Z,0.09
2019-05-14T01:31:14.713Z,0.09
2019-05-14T01:32:12.354Z,0.09
2019-05-14T01:33:13.823Z,0.09
2019-05-14T01:34:14.288Z,0.09
2019-05-14T01:35:15.001Z,0.09
2019-05-14T01:36:15.477Z,0.09
2019-05-14T01:37:15.883Z,0.09
2019-05-14T01:38:16.430Z,0.09
2019-05-14T01:39:16.949Z,0.09
2019-05-14T01:40:17.366Z,0.09
2019-05-14T01:41:18.048Z,0.09
2019-05-14T01:42:18.418Z,0.09
2019-05-14T01:43:18.905Z,0.09
2019-05-14T01:44:21.407Z,0.09
2019-05-14T01:45:25.109Z,0.09
2019-05-14T01:46:21.030Z,0.09
2019-05-14T01:47:21.417Z,0.09
2019-05-14T01:48:21.949Z,0.09
2019-05-14T01:49:22.183Z,0.09
2019-05-14T01:50:21.716Z,0.06
2019-05-14T01:51:22.386Z,0.09
2019-05-14T01:52:22.834Z,0.09
2019-05-14T01:53:24.249Z,0.09
2019-05-14T01:54:24.797Z,0.09
2019-05-14T01:55:25.349Z,0.09
2019-05-14T01:56:24.698Z,0.09
2019-05-14T01:57:26.175Z,0.09
2019-05-14T01:58:31.180Z,0.09
2019-05-14T01:59:26.117Z,0.09
2019-05-14T02:00:26.528Z,0.09
2019-05-14T02:01:28.049Z,0.09
2019-05-14T02:02:28.708Z,0.09
2019-05-14T02:02:37.246Z,0.09
2019-05-14T02:03:40.959Z,0.09
2019-05-14T02:04:38.450Z,0.09
2019-05-14T02:05:41.574Z,0.09
2019-05-14T02:06:41.313Z,0.09
2019-05-14T02:07:42.059Z,0.09
2019-05-14T02:08:41.405Z,0.09
2019-05-14T02:09:41.955Z,0.09
2019-05-14T02:10:42.061Z,0.09
2019-05-14T02:11:42.148Z,0.09
2019-05-14T02:12:43.659Z,0.09
2019-05-14T02:13:44.335Z,0.09
2019-05-14T02:14:44.706Z,0.09
2019-05-14T02:15:45.121Z,0.09
2019-05-14T02:16:45.676Z,0.09
2019-05-14T02:17:46.230Z,0.09
2019-05-14T02:18:46.656Z,0.09
2019-05-14T02:19:47.087Z,0.09
2019-05-14T02:20:47.572Z,0.09
2019-05-14T02:21:47.772Z,0.09
2019-05-14T02:22:48.180Z,0.09
2019-05-14T02:23:48.672Z,0.09
2019-05-14T02:24:49.144Z,0.09
2019-05-14T02:25:51.686Z,0.09
2019-05-14T02:26:51.372Z,0.09
2019-05-14T02:27:51.788Z,0.09
2019-05-14T02:28:51.418Z,0.09
2019-05-14T02:29:51.925Z,0.09
2019-05-14T02:30:57.451Z,0.09
2019-05-14T02:31:51.653Z,0.09
2019-05-14T02:32:53.276Z,0.09
2019-05-14T02:33:53.686Z,0.09
2019-05-14T02:34:54.252Z,0.09
2019-05-14T02:35:54.745Z,0.09
2019-05-14T02:36:55.129Z,0.09
2019-05-14T02:37:55.636Z,0.09
2019-05-14T02:38:56.026Z,0.09
2019-05-14T02:39:59.481Z,0.09
2019-05-14T02:40:55.951Z,0.09
2019-05-14T02:41:58.950Z,0.09
2019-05-14T02:42:59.347Z,0.09
2019-05-14T02:43:59.378Z,0.09
2019-05-14T02:44:59.310Z,0.09
2019-05-14T02:46:10.828Z,0.09
2019-05-14T02:46:59.167Z,0.09
2019-05-14T02:48:00.450Z,0.09
2019-05-14T02:48:59.798Z,0.09
2019-05-14T02:49:59.971Z,0.09
2019-05-14T02:51:01.615Z,0.09
2019-05-14T02:52:02.538Z,0.13
2019-05-14T02:53:03.063Z,0.09
2019-05-14T02:54:03.727Z,0.09
2019-05-14T02:55:04.106Z,0.09
2019-05-14T02:56:04.800Z,0.09
2019-05-14T02:57:05.265Z,0.13
2019-05-14T02:58:04.616Z,0.09
2019-05-14T02:59:09.504Z,0.13
2019-05-14T03:00:05.751Z,0.09
2019-05-14T03:01:09.444Z,0.09
2019-05-14T03:02:09.547Z,0.09
2019-05-14T03:03:09.881Z,0.13
2019-05-14T03:04:09.111Z,0.13
2019-05-14T03:05:09.797Z,0.13
2019-05-14T03:06:09.598Z,0.13
2019-05-14T03:07:10.633Z,0.13
2019-05-14T03:08:10.051Z,0.13
2019-05-14T03:09:11.480Z,0.13
2019-05-14T03:09:20.560Z,0.13
2019-05-14T03:10:20.393Z,0.13
2019-05-14T03:11:21.826Z,0.13
2019-05-14T03:12:22.311Z,0.13
2019-05-14T03:13:22.949Z,0.13
2019-05-14T03:14:23.430Z,0.13
2019-05-14T03:15:23.974Z,0.13
2019-05-14T03:16:30.854Z,0.13
2019-05-14T03:17:23.912Z,0.13
2019-05-14T03:18:25.367Z,0.13
2019-05-14T03:19:25.822Z,0.13
2019-05-14T03:20:28.776Z,0.13
2019-05-14T03:21:25.705Z,0.13
2019-05-14T03:22:41.650Z,0.13
2019-05-14T03:23:30.220Z,0.13
2019-05-14T03:24:28.809Z,0.13
2019-05-14T03:25:30.165Z,0.13
2019-05-14T03:26:29.357Z,0.13
2019-05-14T03:27:30.418Z,0.13
2019-05-14T03:28:30.527Z,0.13
2019-05-14T03:29:30.989Z,0.13
2019-05-14T03:30:32.394Z,0.13
2019-05-14T03:31:33.082Z,0.13
2019-05-14T03:32:33.127Z,0.13
2019-05-14T03:33:33.946Z,0.13
2019-05-14T03:34:33.657Z,0.13
2019-05-14T03:35:42.152Z,0.13
2019-05-14T03:36:35.338Z,0.16
2019-05-14T03:37:34.338Z,0.16
2019-05-14T03:38:35.773Z,0.16
2019-05-14T03:39:39.396Z,0.13
2019-05-14T03:40:35.835Z,0.16
2019-05-14T03:41:39.690Z,0.16
2019-05-14T03:42:39.657Z,0.16
2019-05-14T03:43:39.158Z,0.16
2019-05-14T03:44:39.999Z,0.16
2019-05-14T03:45:39.104Z,0.13
2019-05-14T03:46:49.530Z,0.16
2019-05-14T03:47:39.696Z,0.16
2019-05-14T03:48:40.228Z,0.16
2019-05-14T03:49:40.357Z,0.16
2019-05-14T03:50:40.813Z,0.16
2019-05-14T03:51:42.411Z,0.16
2019-05-14T03:52:42.854Z,0.16
2019-05-14T03:53:56.923Z,0.16
2019-05-14T03:54:42.668Z,0.16
2019-05-14T03:55:44.206Z,0.16
2019-05-14T03:56:44.631Z,0.16
2019-05-14T03:57:45.300Z,0.23
2019-05-14T03:58:49.238Z,0.23
2019-05-14T03:59:45.272Z,0.23
2019-05-14T04:00:45.478Z,0.23
2019-05-14T04:01:50.713Z,0.23
2019-05-14T04:02:49.082Z,0.23
2019-05-14T04:03:50.315Z,0.27
2019-05-14T04:04:50.259Z,0.23
2019-05-14T04:05:49.502Z,0.27
2019-05-14T04:06:49.616Z,0.27
2019-05-14T04:07:50.257Z,0.23
2019-05-14T04:08:50.001Z,0.27
2019-05-14T04:09:50.070Z,0.27
2019-05-14T04:10:54.201Z,0.27
2019-05-14T04:11:51.513Z,0.27
2019-05-14T04:12:52.883Z,0.27
2019-05-14T04:13:53.407Z,0.27
2019-05-14T04:14:52.833Z,0.27
2019-05-14T04:15:54.392Z,0.27
2019-05-14T04:17:05.207Z,0.27
2019-05-14T04:17:54.848Z,0.27
2019-05-14T04:18:59.240Z,0.27
2019-05-14T04:19:55.977Z,0.27
2019-05-14T04:20:59.426Z,0.27
2019-05-14T04:21:59.905Z,0.27
2019-05-14T04:23:00.064Z,0.27
2019-05-14T04:23:59.501Z,0.31
2019-05-14T04:24:59.686Z,0.31
2019-05-14T04:26:00.523Z,0.31
2019-05-14T04:27:07.193Z,0.31
2019-05-14T04:27:59.917Z,0.31
2019-05-14T04:29:01.285Z,0.31
2019-05-14T04:30:01.879Z,0.31
2019-05-14T04:31:01.206Z,0.31
2019-05-14T04:31:10.232Z,0.31
2019-05-14T04:32:11.794Z,0.31
2019-05-14T04:33:11.237Z,0.31
2019-05-14T04:34:12.855Z,0.31
2019-05-14T04:35:13.429Z,0.31
2019-05-14T04:36:14.007Z,0.31
2019-05-14T04:37:14.407Z,0.31
2019-05-14T04:38:15.045Z,0.31
2019-05-14T04:39:15.752Z,0.34
2019-05-14T04:40:18.902Z,0.34
2019-05-14T04:41:19.222Z,0.34
2019-05-14T04:42:16.201Z,0.34
2019-05-14T04:43:19.236Z,0.38
2019-05-14T04:44:19.216Z,0.38
2019-05-14T04:45:19.719Z,0.41
2019-05-14T04:46:19.949Z,0.41
2019-05-14T04:47:31.416Z,0.45
2019-05-14T04:48:31.066Z,0.45
2019-05-14T04:49:20.125Z,0.45
2019-05-14T04:50:20.393Z,0.45
2019-05-14T04:51:20.631Z,0.48
2019-05-14T04:52:22.257Z,0.48
2019-05-14T04:53:22.678Z,0.48
2019-05-14T04:54:23.139Z,0.48
2019-05-14T04:55:23.822Z,0.48
2019-05-14T04:56:24.386Z,0.48
2019-05-14T04:57:25.745Z,0.48
2019-05-14T04:58:24.405Z,0.52
2019-05-14T04:59:29.686Z,0.55
2019-05-14T05:00:25.791Z,0.52
2019-05-14T05:01:29.468Z,0.55
2019-05-14T05:02:29.839Z,0.52
2019-05-14T05:03:30.333Z,0.59
2019-05-14T05:04:29.904Z,0.59
2019-05-14T05:05:29.984Z,0.59
2019-05-14T05:06:29.294Z,0.59
2019-05-14T05:07:29.965Z,0.59
2019-05-14T05:08:30.744Z,0.66
2019-05-14T05:09:30.320Z,0.66
2019-05-14T05:10:31.840Z,0.70
2019-05-14T05:11:32.379Z,0.66
2019-05-14T05:12:32.981Z,0.70
2019-05-14T05:13:33.357Z,0.66
2019-05-14T05:14:33.773Z,0.66
2019-05-14T05:15:34.576Z,0.70
2019-05-14T05:16:35.088Z,0.70
2019-05-14T05:17:44.166Z,0.73
2019-05-14T05:18:35.072Z,0.73
2019-05-14T05:19:39.245Z,0.73
2019-05-14T05:20:39.164Z,0.77
2019-05-14T05:21:38.711Z,0.77
2019-05-14T05:22:39.497Z,0.73
2019-05-14T05:23:38.702Z,0.77
2019-05-14T05:24:38.289Z,0.77
2019-05-14T05:25:38.678Z,0.77
2019-05-14T05:26:40.392Z,0.80
2019-05-14T05:27:41.354Z,0.80
2019-05-14T05:28:41.907Z,0.80
2019-05-14T05:29:42.453Z,0.77
2019-05-14T05:30:42.943Z,0.80
2019-05-14T05:31:43.486Z,0.80
2019-05-14T05:32:44.033Z,0.88
2019-05-14T05:33:44.755Z,0.88
2019-05-14T05:34:45.252Z,0.91
2019-05-14T05:35:45.894Z,0.91
2019-05-14T05:35:54.470Z,0.88
2019-05-14T05:36:55.850Z,0.91
2019-05-14T05:37:58.286Z,0.91
2019-05-14T05:38:56.031Z,1.02
2019-05-14T05:39:58.361Z,0.95
2019-05-14T05:40:59.946Z,0.95
2019-05-14T05:41:58.490Z,0.95
2019-05-14T05:42:58.367Z,0.95
2019-05-14T05:43:59.105Z,0.95
2019-05-14T05:44:59.432Z,0.98
2019-05-14T05:46:00.869Z,0.98
2019-05-14T05:47:01.302Z,1.02
2019-05-14T05:48:02.029Z,1.02
2019-05-14T05:49:01.437Z,1.02
2019-05-14T05:50:02.614Z,0.95
2019-05-14T05:51:03.172Z,0.98
2019-05-14T05:52:03.602Z,1.09
2019-05-14T05:53:03.988Z,1.02
2019-05-14T05:54:04.367Z,1.02
2019-05-14T05:55:04.930Z,1.12
2019-05-14T05:56:05.452Z,1.02
2019-05-14T05:57:05.957Z,1.09
2019-05-14T05:58:08.525Z,1.02
2019-05-14T05:59:06.113Z,1.98
2019-05-14T06:00:09.460Z,1.52
2019-05-14T06:01:09.683Z,1.23
2019-05-14T06:02:09.427Z,1.30
2019-05-14T06:03:10.768Z,1.02
2019-05-14T06:04:08.837Z,1.12
2019-05-14T06:05:09.090Z,1.12
2019-05-14T06:06:13.589Z,1.27
2019-05-14T06:07:10.092Z,1.27
2019-05-14T06:08:11.587Z,1.27
2019-05-14T06:09:12.169Z,1.30
2019-05-14T06:10:12.763Z,1.30
2019-05-14T06:11:13.450Z,1.30
2019-05-14T06:12:13.930Z,1.34
2019-05-14T06:13:14.588Z,1.34
2019-05-14T06:14:14.050Z,1.34
2019-05-14T06:15:15.556Z,1.34
2019-05-14T06:16:18.417Z,1.34
2019-05-14T06:17:15.881Z,1.34
2019-05-14T06:18:21.739Z,1.37
2019-05-14T06:19:18.546Z,1.62
2019-05-14T06:20:18.978Z,1.84
2019-05-14T06:21:18.983Z,1.98
2019-05-14T06:22:18.826Z,1.98
2019-05-14T06:23:19.068Z,2.01
2019-05-14T06:24:19.560Z,2.05
2019-05-14T06:25:21.113Z,2.09
2019-05-14T06:26:20.348Z,2.12
2019-05-14T06:27:21.866Z,2.16
2019-05-14T06:28:22.435Z,2.16
2019-05-14T06:29:22.870Z,2.16
2019-05-14T06:30:23.450Z,2.12
2019-05-14T06:31:23.988Z,2.12
2019-05-14T06:32:24.396Z,2.19
2019-05-14T06:33:24.924Z,2.12
2019-05-14T06:34:25.388Z,2.16
2019-05-14T06:35:28.479Z,2.23
2019-05-14T06:36:26.100Z,2.19
2019-05-14T06:37:30.170Z,2.19
2019-05-14T06:38:29.516Z,2.19
2019-05-14T06:39:28.411Z,2.19
2019-05-14T06:40:28.785Z,2.23
2019-05-14T06:41:29.087Z,2.19
2019-05-14T06:41:42.460Z,2.23
2019-05-14T06:42:39.503Z,2.19
2019-05-14T06:43:39.367Z,2.16
2019-05-14T06:44:39.312Z,2.05
2019-05-14T06:45:40.980Z,1.87
2019-05-14T06:46:41.481Z,1.69
2019-05-14T06:47:42.115Z,1.69
2019-05-14T06:48:42.697Z,1.66
2019-05-14T06:49:42.460Z,1.69
2019-05-14T06:50:43.903Z,1.69
2019-05-14T06:51:44.560Z,1.37
2019-05-14T06:52:45.125Z,1.41
2019-05-14T06:53:45.597Z,1.66
2019-05-14T06:54:46.061Z,1.73
2019-05-14T06:55:48.402Z,1.73
2019-05-14T06:56:45.950Z,1.73
2019-05-14T06:57:48.126Z,1.77
2019-05-14T06:58:49.073Z,1.77
2019-05-14T06:59:48.375Z,1.77
2019-05-14T07:00:49.510Z,1.80
2019-05-14T07:01:49.105Z,1.77
2019-05-14T07:02:49.350Z,1.80
2019-05-14T07:03:49.773Z,1.80
2019-05-14T07:04:51.521Z,1.80
2019-05-14T07:05:52.047Z,1.84
2019-05-14T07:06:52.492Z,1.80
2019-05-14T07:07:52.962Z,1.80
2019-05-14T07:08:53.744Z,1.80
2019-05-14T07:09:54.281Z,1.84
2019-05-14T07:10:54.665Z,1.80
2019-05-14T07:11:55.394Z,1.84
2019-05-14T07:12:55.783Z,1.87
2019-05-14T07:13:58.137Z,1.52
2019-05-14T07:14:55.581Z,1.52
2019-05-14T07:15:58.353Z,1.98
2019-05-14T07:16:58.912Z,2.01
2019-05-14T07:17:58.390Z,1.87
2019-05-14T07:18:59.147Z,1.84
2019-05-14T07:19:58.657Z,1.84
2019-05-14T07:21:00.334Z,1.87
2019-05-14T07:22:00.935Z,1.87
2019-05-14T07:23:01.589Z,1.87
2019-05-14T07:24:02.324Z,1.94
2019-05-14T07:25:02.991Z,1.87
2019-05-14T07:26:02.546Z,1.94
2019-05-14T07:27:04.055Z,1.94
2019-05-14T07:28:04.463Z,1.59
2019-05-14T07:29:04.898Z,1.62
2019-05-14T07:30:05.621Z,2.01
2019-05-14T07:31:06.112Z,2.01
2019-05-14T07:32:09.080Z,2.01
2019-05-14T07:33:06.186Z,2.01
2019-05-14T07:34:08.928Z,1.98
2019-05-14T07:35:09.108Z,2.01
2019-05-14T07:36:08.908Z,1.98
2019-05-14T07:37:09.448Z,2.01
2019-05-14T07:38:09.300Z,2.01
2019-05-14T07:39:09.930Z,2.01
2019-05-14T07:40:11.804Z,2.01
2019-05-14T07:41:11.076Z,1.98
2019-05-14T07:42:11.737Z,2.01
2019-05-14T07:43:12.366Z,2.01
2019-05-14T07:44:12.987Z,2.01
2019-05-14T07:45:14.023Z,2.01
2019-05-14T07:46:14.174Z,2.01
2019-05-14T07:47:14.235Z,2.09
2019-05-14T07:48:14.715Z,2.05
2019-05-14T07:49:15.637Z,2.09
2019-05-14T07:49:24.788Z,2.05
2019-05-14T07:50:28.826Z,2.09
2019-05-14T07:51:28.239Z,2.09
2019-05-14T07:52:28.423Z,2.12
2019-05-14T07:53:36.079Z,2.12
2019-05-14T07:54:28.328Z,2.16
2019-05-14T07:55:28.845Z,1.94
2019-05-14T07:56:29.437Z,2.16
2019-05-14T07:57:29.365Z,2.19
2019-05-14T07:58:29.365Z,2.05
2019-05-14T07:59:29.179Z,2.05
2019-05-14T08:00:30.725Z,2.26
2019-05-14T08:01:31.101Z,2.19
2019-05-14T08:02:31.251Z,2.23
2019-05-14T08:03:32.090Z,2.23
2019-05-14T08:04:32.640Z,2.01
2019-05-14T08:05:33.251Z,2.09
2019-05-14T08:06:33.730Z,2.26
2019-05-14T08:07:34.270Z,2.12
2019-05-14T08:08:34.706Z,2.16
2019-05-14T08:09:34.737Z,2.30
2019-05-14T08:10:35.279Z,2.23
2019-05-14T08:11:35.669Z,2.37
2019-05-14T08:12:36.019Z,2.26
2019-05-14T08:13:38.784Z,2.26
2019-05-14T08:14:45.331Z,2.05
2019-05-14T08:15:38.648Z,2.23
2019-05-14T08:16:38.162Z,2.30
2019-05-14T08:17:38.791Z,2.30
2019-05-14T08:18:39.527Z,2.41
2019-05-14T08:19:38.765Z,2.37
2019-05-14T08:20:38.724Z,2.41
2019-05-14T08:21:40.391Z,2.41
2019-05-14T08:22:40.744Z,2.41
2019-05-14T08:23:41.320Z,2.48
2019-05-14T08:24:41.820Z,2.48
2019-05-14T08:25:42.504Z,2.44
2019-05-14T08:26:44.239Z,2.48
2019-05-14T08:27:41.824Z,2.51
2019-05-14T08:28:42.834Z,2.48
2019-05-14T08:29:43.457Z,2.55
2019-05-14T08:30:42.781Z,2.58
2019-05-14T08:31:44.730Z,2.55
2019-05-14T08:32:45.287Z,2.73
2019-05-14T08:33:48.532Z,2.51
2019-05-14T08:34:47.835Z,2.58
2019-05-14T08:35:46.002Z,2.66
2019-05-14T08:36:48.373Z,2.51
2019-05-14T08:37:49.232Z,2.62
2019-05-14T08:38:50.073Z,2.66
2019-05-14T08:39:48.828Z,2.58
2019-05-14T08:40:49.108Z,2.66
2019-05-14T08:41:58.603Z,2.66
2019-05-14T08:42:50.320Z,2.62
2019-05-14T08:43:50.349Z,2.69
2019-05-14T08:44:51.581Z,2.69
2019-05-14T08:45:51.653Z,2.73
2019-05-14T08:46:52.295Z,2.73
2019-05-14T08:47:53.145Z,2.73
2019-05-14T08:48:53.726Z,2.73
2019-05-14T08:49:54.250Z,2.80
2019-05-14T08:50:54.910Z,2.80
2019-05-14T08:51:54.971Z,2.80
2019-05-14T08:52:58.119Z,2.83
2019-05-14T08:53:58.956Z,2.83
2019-05-14T08:55:07.251Z,2.83
2019-05-14T08:55:58.885Z,2.87
2019-05-14T08:56:58.513Z,2.87
2019-05-14T08:57:59.330Z,2.83
2019-05-14T08:58:59.427Z,2.87
2019-05-14T08:59:59.912Z,2.87
2019-05-14T09:01:00.282Z,2.16
2019-05-14T09:02:06.278Z,2.94
2019-05-14T09:03:03.167Z,1.98
2019-05-14T09:04:01.538Z,2.94
2019-05-14T09:05:04.918Z,2.90
2019-05-14T09:05:13.093Z,2.90
2019-05-14T09:06:14.397Z,2.90
2019-05-14T09:07:14.837Z,2.90
2019-05-14T09:08:14.294Z,2.87
2019-05-14T09:09:18.122Z,2.87
2019-05-14T09:10:15.481Z,2.83
2019-05-14T09:11:22.859Z,2.83
2019-05-14T09:12:18.799Z,2.87
2019-05-14T09:13:18.501Z,0.80
2019-05-14T09:14:18.801Z,0.84
2019-05-14T09:15:18.825Z,2.90
2019-05-14T09:16:38.078Z,2.90
2019-05-14T09:17:19.830Z,2.90
2019-05-14T09:18:21.394Z,2.90
2019-05-14T09:19:22.009Z,2.98
2019-05-14T09:20:22.476Z,2.90
2019-05-14T09:21:23.171Z,2.98
2019-05-14T09:22:23.747Z,2.98
2019-05-14T09:23:24.611Z,2.98
2019-05-14T09:24:25.525Z,2.98
2019-05-14T09:25:25.172Z,2.98
2019-05-14T09:26:28.342Z,2.98
2019-05-14T09:27:25.605Z,2.98
2019-05-14T09:28:28.562Z,2.98
2019-05-14T09:29:29.853Z,2.94
2019-05-14T09:30:29.001Z,2.98
2019-05-14T09:31:29.565Z,2.94
2019-05-14T09:32:29.250Z,2.98
2019-05-14T09:33:29.754Z,2.98
2019-05-14T09:34:30.046Z,1.27
2019-05-14T09:35:31.757Z,1.12
2019-05-14T09:36:32.211Z,3.01
2019-05-14T09:37:32.848Z,1.41
2019-05-14T09:38:33.326Z,3.01
2019-05-14T09:39:34.229Z,2.98
2019-05-14T09:40:34.355Z,2.98
2019-05-14T09:41:33.774Z,2.58
2019-05-14T09:42:35.601Z,2.98
2019-05-14T09:43:39.266Z,2.98
2019-05-14T09:44:38.688Z,2.98
2019-05-14T09:45:38.792Z,2.05
2019-05-14T09:46:38.502Z,0.88
2019-05-14T09:47:38.967Z,2.98
2019-05-14T09:48:38.977Z,2.98
2019-05-14T09:49:40.497Z,2.98
2019-05-14T09:50:41.090Z,2.98
2019-05-14T09:51:41.844Z,2.69
2019-05-14T09:52:41.879Z,0.80
2019-05-14T09:53:42.453Z,0.88
2019-05-14T09:54:44.178Z,0.88
2019-05-14T09:55:42.368Z,0.84
2019-05-14T09:56:43.660Z,0.91
2019-05-14T09:57:44.250Z,3.05
2019-05-14T09:58:44.933Z,1.09
2019-05-14T09:59:47.830Z,1.41
2019-05-14T10:00:45.234Z,3.01
2019-05-14T10:01:45.298Z,3.05
2019-05-14T10:02:49.209Z,2.98
2019-05-14T10:03:49.354Z,1.02
2019-05-14T10:04:49.071Z,3.01
2019-05-14T10:05:50.207Z,1.02
2019-05-14T10:06:48.701Z,1.02
2019-05-14T10:07:49.654Z,2.98
2019-05-14T10:08:49.555Z,3.01
2019-05-14T10:09:50.299Z,3.01
2019-05-14T10:10:51.790Z,3.01
2019-05-14T10:11:52.374Z,2.98
2019-05-14T10:12:01.400Z,3.01
2019-05-14T10:13:02.780Z,3.01
2019-05-14T10:14:02.459Z,2.98
2019-05-14T10:15:03.921Z,3.01
2019-05-14T10:16:03.999Z,2.98
2019-05-14T10:17:04.539Z,2.98
2019-05-14T10:18:05.203Z,2.98
2019-05-14T10:19:04.794Z,2.98
2019-05-14T10:20:08.833Z,2.98
2019-05-14T10:21:08.336Z,2.98
2019-05-14T10:22:08.272Z,2.98
2019-05-14T10:23:09.272Z,2.94
2019-05-14T10:24:09.334Z,2.94
2019-05-14T10:25:09.152Z,2.98
2019-05-14T10:26:09.254Z,2.98
2019-05-14T10:27:09.287Z,1.59
2019-05-14T10:28:09.904Z,1.30
2019-05-14T10:29:11.472Z,1.23
2019-05-14T10:30:12.052Z,1.69
2019-05-14T10:31:13.395Z,3.01
2019-05-14T10:32:12.076Z,1.34
2019-05-14T10:33:14.933Z,3.01
2019-05-14T10:34:13.306Z,2.98
2019-05-14T10:35:15.239Z,2.09
2019-05-14T10:36:18.755Z,1.30
2019-05-14T10:37:15.546Z,1.34
2019-05-14T10:38:19.010Z,1.34
2019-05-14T10:39:19.201Z,1.34
2019-05-14T10:40:18.392Z,3.01
2019-05-14T10:41:18.526Z,3.01
2019-05-14T10:42:20.112Z,1.30
2019-05-14T10:43:19.609Z,1.27
2019-05-14T10:44:19.486Z,2.98
2019-05-14T10:45:20.710Z,1.16
2019-05-14T10:46:21.340Z,1.44
2019-05-14T10:47:22.010Z,1.02
2019-05-14T10:48:22.785Z,3.01
2019-05-14T10:49:23.950Z,3.01
2019-05-14T10:50:22.547Z,3.01
2019-05-14T10:51:24.173Z,2.98
2019-05-14T10:52:24.995Z,2.98
2019-05-14T10:53:28.685Z,3.01
2019-05-14T10:54:26.994Z,2.98
2019-05-14T10:55:27.814Z,2.98
2019-05-14T10:56:29.503Z,2.98
2019-05-14T10:57:29.000Z,2.98
2019-05-14T10:58:29.045Z,2.98
2019-05-14T10:59:29.416Z,2.98
2019-05-14T11:00:29.065Z,2.98
2019-05-14T11:01:30.716Z,2.98
2019-05-14T11:02:30.751Z,2.98
2019-05-14T11:03:31.696Z,1.87
2019-05-14T11:04:34.388Z,2.62
2019-05-14T11:05:32.291Z,2.90
2019-05-14T11:06:34.182Z,2.98
2019-05-14T11:07:34.731Z,2.98
2019-05-14T11:08:35.442Z,2.98
2019-05-14T11:09:38.080Z,2.98
2019-05-14T11:10:35.835Z,2.37
2019-05-14T11:11:38.214Z,2.98
2019-05-14T11:12:39.388Z,1.62
2019-05-14T11:13:39.407Z,1.27
2019-05-14T11:14:39.024Z,1.77
2019-05-14T11:15:39.522Z,3.01
2019-05-14T11:16:41.992Z,3.01
2019-05-14T11:17:40.665Z,2.83
2019-05-14T11:18:40.549Z,2.98
2019-05-14T11:19:41.149Z,1.87
2019-05-14T11:20:43.092Z,2.98
2019-05-14T11:21:43.612Z,1.34
2019-05-14T11:22:44.457Z,1.23
2019-05-14T11:23:44.915Z,1.20
2019-05-14T11:24:45.391Z,1.12
2019-05-14T11:24:53.923Z,1.16
2019-05-14T11:25:58.045Z,1.55
2019-05-14T11:26:55.379Z,2.98
2019-05-14T11:27:58.691Z,2.80
2019-05-14T11:28:58.595Z,1.30
2019-05-14T11:29:58.681Z,1.23
2019-05-14T11:30:57.977Z,1.23
2019-05-14T11:31:59.879Z,1.23
2019-05-14T11:33:00.668Z,1.34
2019-05-14T11:34:01.305Z,2.23
2019-05-14T11:35:02.207Z,2.98
2019-05-14T11:36:02.755Z,1.30
2019-05-14T11:37:03.472Z,1.16
2019-05-14T11:38:03.509Z,1.41
2019-05-14T11:39:04.336Z,1.55
2019-05-14T11:40:05.199Z,1.16
2019-05-14T11:41:05.748Z,1.12
2019-05-14T11:42:08.564Z,1.30
2019-05-14T11:43:05.239Z,1.34
2019-05-14T11:44:09.104Z,2.01
2019-05-14T11:45:08.804Z,1.44
2019-05-14T11:46:08.607Z,1.16
2019-05-14T11:47:09.008Z,1.16
2019-05-14T11:48:09.007Z,1.16
2019-05-14T11:49:10.873Z,3.01
2019-05-14T11:50:11.460Z,3.01
2019-05-14T11:51:11.993Z,2.30
2019-05-14T11:52:12.583Z,1.20
2019-05-14T11:53:12.057Z,1.37
2019-05-14T11:54:13.522Z,1.09
2019-05-14T11:55:14.036Z,2.98
2019-05-14T11:56:14.627Z,3.01
2019-05-14T11:57:15.101Z,2.98
2019-05-14T11:58:15.575Z,2.98
2019-05-14T11:59:16.159Z,2.98
2019-05-14T12:00:19.316Z,2.98
2019-05-14T12:01:18.966Z,2.98
2019-05-14T12:02:18.950Z,2.98
2019-05-14T12:03:19.620Z,2.98
2019-05-14T12:04:18.772Z,2.98
2019-05-14T12:05:19.048Z,2.98
2019-05-14T12:06:18.937Z,2.83
2019-05-14T12:07:20.568Z,2.94
2019-05-14T12:08:21.066Z,2.66
2019-05-14T12:09:21.588Z,1.52
2019-05-14T12:10:22.334Z,1.62
2019-05-14T12:11:23.331Z,1.44
2019-05-14T12:12:22.984Z,1.44
2019-05-14T12:13:24.426Z,1.69
2019-05-14T12:14:24.983Z,1.41
2019-05-14T12:15:25.952Z,1.55
2019-05-14T12:16:29.173Z,2.98
2019-05-14T12:17:29.325Z,1.20
2019-05-14T12:18:29.016Z,1.34
2019-05-14T12:19:28.405Z,1.16
2019-05-14T12:20:29.651Z,3.01
2019-05-14T12:21:29.133Z,2.98
2019-05-14T12:22:30.741Z,2.98
2019-05-14T12:23:31.283Z,3.01
2019-05-14T12:24:32.237Z,2.94
2019-05-14T12:25:33.033Z,2.90
2019-05-14T12:25:45.572Z,1.41
2019-05-14T12:26:49.071Z,1.23
2019-05-14T12:27:49.448Z,1.16
2019-05-14T12:28:49.356Z,1.20
2019-05-14T12:29:49.729Z,3.01
2019-05-14T12:30:49.203Z,1.87
2019-05-14T12:31:50.701Z,1.30
2019-05-14T12:32:50.357Z,1.16
2019-05-14T12:33:50.791Z,1.16
2019-05-14T12:34:51.493Z,0.95
2019-05-14T12:35:53.445Z,0.88
2019-05-14T12:36:54.229Z,0.84
2019-05-14T12:37:54.380Z,0.84
2019-05-14T12:38:55.154Z,3.01
2019-05-14T12:39:55.839Z,3.01
2019-05-14T12:40:58.380Z,3.01
2019-05-14T12:41:58.158Z,2.98
2019-05-14T12:42:59.123Z,3.01
2019-05-14T12:43:58.965Z,2.98
2019-05-14T12:44:58.697Z,3.01
2019-05-14T12:45:59.499Z,2.94
2019-05-14T12:46:59.823Z,2.98
2019-05-14T12:48:01.318Z,3.01
2019-05-14T12:49:01.874Z,3.01
2019-05-14T12:50:02.523Z,2.98
2019-05-14T12:51:03.479Z,2.98
2019-05-14T12:52:18.089Z,2.98
2019-05-14T12:53:03.936Z,2.98
2019-05-14T12:54:05.771Z,2.98
2019-05-14T12:55:05.310Z,2.98
2019-05-14T12:56:08.552Z,2.90
2019-05-14T12:57:06.360Z,2.98
2019-05-14T12:58:08.350Z,2.94
2019-05-14T12:59:08.234Z,2.98
2019-05-14T13:00:09.061Z,2.98
2019-05-14T13:01:09.551Z,2.98
2019-05-14T13:02:10.414Z,2.98
2019-05-14T13:03:12.210Z,3.01
2019-05-14T13:04:12.253Z,2.98
2019-05-14T13:05:12.340Z,2.98
2019-05-14T13:06:13.016Z,2.98
2019-05-14T13:07:13.099Z,2.98
2019-05-14T13:08:14.555Z,3.01
2019-05-14T13:09:14.206Z,2.98
2019-05-14T13:10:14.947Z,2.98
2019-05-14T13:11:15.423Z,2.83
2019-05-14T13:12:16.093Z,2.98
2019-05-14T13:13:16.309Z,3.01
2019-05-14T13:14:17.107Z,2.98
2019-05-14T13:15:20.151Z,2.98
2019-05-14T13:16:19.344Z,2.98